Terminal Aerodrome Forecast
Issued by NWS

Home | Current Version | Previous Version | Text Only | Print | Product List | Glossary On
Versions: 1 2 3 4 5 6 7 8 9 10 11 12 13 14 15 16 17 18 19 20 21
775
FTUS46 KLOX 270132 AAA
TAFBUR
TAF AMD
KBUR 270132Z 2702/2724 35012G22KT P6SM SCT200
     FM270400 01012KT P6SM SCT200
     FM271100 35018G28KT P6SM SCT200
     FM271700 35012KT P6SM SCT200=

USA.gov is the U.S. government's official web portal to all federal, state and local government web resources and services.